California Spirit — WDF2131 — position and weather

sailwx.info

Track history (hours):
 
Tides and Currents Weather Stations Pressure Air Temp Water Temp Dewpoint Dewpoint Depression Visibility Wind Speed Wind Dir Waves Ship Positions

California Spirit

Owner: Yacht Connections International, San Francisco, CA. More information available from US FCC via Universal Licensing System and Coast Guard Vessel Documentation Center.

Last reported at 2017-Dec-16 08:02 UTC. Time now 2017-Dec-17 17:54 UTC.
Position N 37°47' W 122°23'.

; draft 1.9 m.

Type: Passenger vessel. MMSI: 367425230.

Date/timePositionNaut miles runAvg speedWind from/ knotsBaromVisibWave heightAir tempDewpointWater temp
2017-Dec-16 08:02N 37°47' W 122°23'0 0.0
2017-Dec-16 08:01N 37°47' W 122°23'0 0.0
2017-Dec-16 07:30N 37°47' W 122°23'0 0.0
2017-Dec-16 07:00N 37°47' W 122°23'3 5.0
2017-Dec-16 06:30N 37°49' W 122°25'3 5.2
2017-Dec-16 06:00N 37°50' W 122°28'2 3.6
2017-Dec-16 05:30N 37°52' W 122°29'2 3.9
2017-Dec-16 05:00N 37°52' W 122°26'3 6.3
2017-Dec-16 04:30N 37°50' W 122°25'1 2.3
2017-Dec-16 04:00N 37°49' W 122°24'2 3.8
2017-Dec-16 03:30N 37°47' W 122°23'0 0.0
2017-Dec-16 03:00N 37°47' W 122°23'0 0.0
2017-Dec-16 02:30N 37°47' W 122°23'0 0.0
2017-Dec-16 02:00N 37°47' W 122°23'  
2017-Dec-09 19:50N 37°47' W 122°23'0 0.0
2017-Dec-09 19:30N 37°47' W 122°23'0 0.0
2017-Dec-09 19:01N 37°47' W 122°23'0 0.0
2017-Dec-09 18:31N 37°47' W 122°23'0 0.0
2017-Dec-09 18:01N 37°47' W 122°23'0 0.0
2017-Dec-09 17:30N 37°47' W 122°23'0 0.0
2017-Dec-09 17:01N 37°47' W 122°23'0 0.0
2017-Dec-09 16:31N 37°47' W 122°23'0 0.0
2017-Dec-09 16:01N 37°47' W 122°23'0 0.0
2017-Dec-09 15:30N 37°47' W 122°23'0 0.0
2017-Dec-09 15:01N 37°47' W 122°23'0 0.0
2017-Dec-09 14:31N 37°47' W 122°23'0 0.0
2017-Dec-09 14:00N 37°47' W 122°23'0 0.0
2017-Dec-09 13:30N 37°47' W 122°23'0 0.0
2017-Dec-09 13:01N 37°47' W 122°23'0 0.0
2017-Dec-09 12:30N 37°47' W 122°23'0 0.0
2017-Dec-09 12:01N 37°47' W 122°23'0 0.0
2017-Dec-09 11:31N 37°47' W 122°23'0 0.0
2017-Dec-09 11:00N 37°47' W 122°23'0 0.0
2017-Dec-09 10:30N 37°47' W 122°23'0 0.0
2017-Dec-09 10:00N 37°47' W 122°23'0 0.0
2017-Dec-09 09:30N 37°47' W 122°23'0 0.0
2017-Dec-09 09:01N 37°47' W 122°23'0 0.0
2017-Dec-09 08:30N 37°47' W 122°23'0 0.0
2017-Dec-09 08:01N 37°47' W 122°23'0 0.0
2017-Dec-09 07:30N 37°47' W 122°23'0 0.0
2017-Dec-09 07:01N 37°47' W 122°23'0 0.0
2017-Dec-09 06:30N 37°47' W 122°23'0 0.0
2017-Dec-09 06:00N 37°47' W 122°23'0 0.0
2017-Dec-09 05:30N 37°47' W 122°23'0 0.0
2017-Dec-09 05:00N 37°47' W 122°23'0 0.0
2017-Dec-09 04:30N 37°47' W 122°23'0 0.0
2017-Dec-09 04:00N 37°47' W 122°23'0 0.0
2017-Dec-09 03:30N 37°47' W 122°23'0 0.0
2017-Dec-09 03:00N 37°47' W 122°23'0 0.0
2017-Dec-09 02:30N 37°47' W 122°23'0 0.0
2017-Dec-09 02:00N 37°47' W 122°23'0 0.0
2017-Dec-09 01:30N 37°47' W 122°23'0 0.0
2017-Dec-09 01:00N 37°47' W 122°23'0 0.0
2017-Dec-09 00:30N 37°47' W 122°23'0 0.0
2017-Dec-09 00:00N 37°47' W 122°23'0 0.0
2017-Dec-08 23:30N 37°47' W 122°23'0 0.0
2017-Dec-08 23:00N 37°47' W 122°23'0 0.0
2017-Dec-08 22:30N 37°47' W 122°23'0 0.0
2017-Dec-08 22:00N 37°47' W 122°23'0 0.0
2017-Dec-08 21:30N 37°47' W 122°23'0 0.0
2017-Dec-08 21:00N 37°47' W 122°23'0 0.0
2017-Dec-08 20:30N 37°47' W 122°23'0 0.0
2017-Dec-08 20:00N 37°47' W 122°23'0 0.0
2017-Dec-08 19:30N 37°47' W 122°23'0 0.0
2017-Dec-08 19:00N 37°47' W 122°23'0 0.0
2017-Dec-08 18:30N 37°47' W 122°23'0 0.0
2017-Dec-08 18:01N 37°47' W 122°23'0 0.0
2017-Dec-08 17:30N 37°47' W 122°23'0 0.0
2017-Dec-08 17:00N 37°47' W 122°23'0 0.0
2017-Dec-08 16:30N 37°47' W 122°23'0 0.0
2017-Dec-08 16:00N 37°47' W 122°23'0 0.0
2017-Dec-08 15:30N 37°47' W 122°23'0 0.0
2017-Dec-08 15:00N 37°47' W 122°23'0 0.0
2017-Dec-08 14:30N 37°47' W 122°23'0 0.0
2017-Dec-08 14:00N 37°47' W 122°23'0 0.0
2017-Dec-08 13:30N 37°47' W 122°23'0 0.0
2017-Dec-08 13:00N 37°47' W 122°23'0 0.0
2017-Dec-08 12:30N 37°47' W 122°23'0 0.0
2017-Dec-08 12:00N 37°47' W 122°23'0 0.0
2017-Dec-08 11:30N 37°47' W 122°23'0 0.0
2017-Dec-08 11:00N 37°47' W 122°23'0 0.0
2017-Dec-08 10:30N 37°47' W 122°23'0 0.0
2017-Dec-08 10:00N 37°47' W 122°23'0 0.0
2017-Dec-08 09:30N 37°47' W 122°23'0 0.0
2017-Dec-08 09:00N 37°47' W 122°23'0 0.0
2017-Dec-08 08:30N 37°47' W 122°23'0 0.0
2017-Dec-08 08:00N 37°47' W 122°23'0 0.0
2017-Dec-08 07:30N 37°47' W 122°23'0 0.0
2017-Dec-08 07:00N 37°47' W 122°23'0 0.0
2017-Dec-08 06:30N 37°47' W 122°23'0 0.0
2017-Dec-08 06:00N 37°47' W 122°23'0 0.0
2017-Dec-08 05:30N 37°47' W 122°23'0 0.0
2017-Dec-08 05:00N 37°47' W 122°23'0 0.0
2017-Dec-08 04:30N 37°47' W 122°23'0 0.0
2017-Dec-08 04:00N 37°47' W 122°23'0 0.0
2017-Dec-08 03:30N 37°47' W 122°23'0 0.0
2017-Dec-08 03:00N 37°47' W 122°23'0 0.0
2017-Dec-08 02:30N 37°47' W 122°23'0 0.0
2017-Dec-08 02:00N 37°47' W 122°23'0 0.0
2017-Dec-08 01:30N 37°47' W 122°23'0 0.0
2017-Dec-08 01:00N 37°47' W 122°23'0 0.0
2017-Dec-08 00:30N 37°47' W 122°23'0 0.0
2017-Dec-08 00:00N 37°47' W 122°23'0 0.0
2017-Dec-07 23:30N 37°47' W 122°23'0 0.0
2017-Dec-07 23:00N 37°47' W 122°23'0 0.0
2017-Dec-07 22:30N 37°47' W 122°23'0 0.0
2017-Dec-07 22:00N 37°47' W 122°23'0 0.0
2017-Dec-07 21:30N 37°47' W 122°23'0 0.0
2017-Dec-07 21:00N 37°47' W 122°23'0 0.0
2017-Dec-07 20:30N 37°47' W 122°23'0 0.0
2017-Dec-07 20:00N 37°47' W 122°23'0 0.0
2017-Dec-07 19:30N 37°47' W 122°23'0 0.0
2017-Dec-07 19:00N 37°47' W 122°23'0 0.0
2017-Dec-07 18:30N 37°47' W 122°23'0 0.0
2017-Dec-07 18:00N 37°47' W 122°23'0 0.0
2017-Dec-07 17:30N 37°47' W 122°23'0 0.0
2017-Dec-07 17:00N 37°47' W 122°23'0 0.0
2017-Dec-07 16:30N 37°47' W 122°23'0 0.0
2017-Dec-07 16:00N 37°47' W 122°23'0 0.0
2017-Dec-07 15:30N 37°47' W 122°23'0 0.0
2017-Dec-07 15:00N 37°47' W 122°23'0 0.0
2017-Dec-07 14:30N 37°47' W 122°23'0 0.0
2017-Dec-07 14:00N 37°47' W 122°23'0 0.0
2017-Dec-07 13:30N 37°47' W 122°23'0 0.0
2017-Dec-07 13:00N 37°47' W 122°23'0 0.0
2017-Dec-07 12:30N 37°47' W 122°23'0 0.0
2017-Dec-07 12:00N 37°47' W 122°23'0 0.0
2017-Dec-07 11:30N 37°47' W 122°23'0 0.0
2017-Dec-07 11:00N 37°47' W 122°23'0 0.0
2017-Dec-07 10:30N 37°47' W 122°23'0 0.0
2017-Dec-07 10:00N 37°47' W 122°23'0 0.0
2017-Dec-07 09:30N 37°47' W 122°23'0 0.0
2017-Dec-07 09:00N 37°47' W 122°23'0 0.0
2017-Dec-07 08:30N 37°47' W 122°23'0 0.0
2017-Dec-07 08:00N 37°47' W 122°23'0 0.0
2017-Dec-07 07:30N 37°47' W 122°23'0 0.0
2017-Dec-07 07:00N 37°47' W 122°23'0 0.0
2017-Dec-07 06:30N 37°47' W 122°23'0 0.0
2017-Dec-07 06:00N 37°47' W 122°23'0 0.0
2017-Dec-07 05:30N 37°47' W 122°23'0 0.0
2017-Dec-07 05:00N 37°47' W 122°23'0 0.0
2017-Dec-07 04:30N 37°47' W 122°23'0 0.0
2017-Dec-07 04:00N 37°47' W 122°23'0 0.0
2017-Dec-07 03:30N 37°47' W 122°23'0 0.0
2017-Dec-07 03:00N 37°47' W 122°23'0 0.0
2017-Dec-07 02:30N 37°47' W 122°23'0 0.0
2017-Dec-07 02:00N 37°47' W 122°23'0 0.0
2017-Dec-07 01:30N 37°47' W 122°23'0 0.0
2017-Dec-07 01:00N 37°47' W 122°23'0 0.0
2017-Dec-07 00:30N 37°47' W 122°23'0 0.0
2017-Dec-07 00:00N 37°47' W 122°23'0 0.0
2017-Dec-06 23:30N 37°47' W 122°23'0 0.0
2017-Dec-06 23:00N 37°47' W 122°23'0 0.0
2017-Dec-06 22:30N 37°47' W 122°23'0 0.0
2017-Dec-06 22:00N 37°47' W 122°23'0 0.0
2017-Dec-06 21:30N 37°47' W 122°23'0 0.0
2017-Dec-06 21:00N 37°47' W 122°23'  
Track history (hours):
 
Tides and Currents Weather Stations Pressure Air Temp Water Temp Dewpoint Dewpoint Depression Visibility Wind Speed Wind Dir Waves Ship Positions

California Spirit

Owner: Yacht Connections International, San Francisco, CA. More information available from US FCC via Universal Licensing System and Coast Guard Vessel Documentation Center.

Last reported at 2017-Dec-16 08:02 UTC. Time now 2017-Dec-17 17:54 UTC.
Position N 37°47' W 122°23'.

; draft 1.9 m.

Type: Passenger vessel. MMSI: 367425230.

Date/timePositionNaut miles runAvg speedWind from/ knotsBaromVisibWave heightAir tempDewpointWater temp
2017-Dec-16 08:02N 37°47' W 122°23'0 0.0
2017-Dec-16 08:01N 37°47' W 122°23'0 0.0
2017-Dec-16 07:30N 37°47' W 122°23'0 0.0
2017-Dec-16 07:00N 37°47' W 122°23'3 5.0
2017-Dec-16 06:30N 37°49' W 122°25'3 5.2
2017-Dec-16 06:00N 37°50' W 122°28'2 3.6
2017-Dec-16 05:30N 37°52' W 122°29'2 3.9
2017-Dec-16 05:00N 37°52' W 122°26'3 6.3
2017-Dec-16 04:30N 37°50' W 122°25'1 2.3
2017-Dec-16 04:00N 37°49' W 122°24'2 3.8
2017-Dec-16 03:30N 37°47' W 122°23'0 0.0
2017-Dec-16 03:00N 37°47' W 122°23'0 0.0
2017-Dec-16 02:30N 37°47' W 122°23'0 0.0
2017-Dec-16 02:00N 37°47' W 122°23'  
2017-Dec-09 19:50N 37°47' W 122°23'0 0.0
2017-Dec-09 19:30N 37°47' W 122°23'0 0.0
2017-Dec-09 19:01N 37°47' W 122°23'0 0.0
2017-Dec-09 18:31N 37°47' W 122°23'0 0.0
2017-Dec-09 18:01N 37°47' W 122°23'0 0.0
2017-Dec-09 17:30N 37°47' W 122°23'0 0.0
2017-Dec-09 17:01N 37°47' W 122°23'0 0.0
2017-Dec-09 16:31N 37°47' W 122°23'0 0.0
2017-Dec-09 16:01N 37°47' W 122°23'0 0.0
2017-Dec-09 15:30N 37°47' W 122°23'0 0.0
2017-Dec-09 15:01N 37°47' W 122°23'0 0.0
2017-Dec-09 14:31N 37°47' W 122°23'0 0.0
2017-Dec-09 14:00N 37°47' W 122°23'0 0.0
2017-Dec-09 13:30N 37°47' W 122°23'0 0.0
2017-Dec-09 13:01N 37°47' W 122°23'0 0.0
2017-Dec-09 12:30N 37°47' W 122°23'0 0.0
2017-Dec-09 12:01N 37°47' W 122°23'0 0.0
2017-Dec-09 11:31N 37°47' W 122°23'0 0.0
2017-Dec-09 11:00N 37°47' W 122°23'0 0.0
2017-Dec-09 10:30N 37°47' W 122°23'0 0.0
2017-Dec-09 10:00N 37°47' W 122°23'0 0.0
2017-Dec-09 09:30N 37°47' W 122°23'0 0.0
2017-Dec-09 09:01N 37°47' W 122°23'0 0.0
2017-Dec-09 08:30N 37°47' W 122°23'0 0.0
2017-Dec-09 08:01N 37°47' W 122°23'0 0.0
2017-Dec-09 07:30N 37°47' W 122°23'0 0.0
2017-Dec-09 07:01N 37°47' W 122°23'0 0.0
2017-Dec-09 06:30N 37°47' W 122°23'0 0.0
2017-Dec-09 06:00N 37°47' W 122°23'0 0.0
2017-Dec-09 05:30N 37°47' W 122°23'0 0.0
2017-Dec-09 05:00N 37°47' W 122°23'0 0.0
2017-Dec-09 04:30N 37°47' W 122°23'0 0.0
2017-Dec-09 04:00N 37°47' W 122°23'0 0.0
2017-Dec-09 03:30N 37°47' W 122°23'0 0.0
2017-Dec-09 03:00N 37°47' W 122°23'0 0.0
2017-Dec-09 02:30N 37°47' W 122°23'0 0.0
2017-Dec-09 02:00N 37°47' W 122°23'0 0.0
2017-Dec-09 01:30N 37°47' W 122°23'0 0.0
2017-Dec-09 01:00N 37°47' W 122°23'0 0.0
2017-Dec-09 00:30N 37°47' W 122°23'0 0.0
2017-Dec-09 00:00N 37°47' W 122°23'0 0.0
2017-Dec-08 23:30N 37°47' W 122°23'0 0.0
2017-Dec-08 23:00N 37°47' W 122°23'0 0.0
2017-Dec-08 22:30N 37°47' W 122°23'0 0.0
2017-Dec-08 22:00N 37°47' W 122°23'0 0.0
2017-Dec-08 21:30N 37°47' W 122°23'0 0.0
2017-Dec-08 21:00N 37°47' W 122°23'0 0.0
2017-Dec-08 20:30N 37°47' W 122°23'0 0.0
2017-Dec-08 20:00N 37°47' W 122°23'0 0.0
2017-Dec-08 19:30N 37°47' W 122°23'0 0.0
2017-Dec-08 19:00N 37°47' W 122°23'0 0.0
2017-Dec-08 18:30N 37°47' W 122°23'0 0.0
2017-Dec-08 18:01N 37°47' W 122°23'0 0.0
2017-Dec-08 17:30N 37°47' W 122°23'0 0.0
2017-Dec-08 17:00N 37°47' W 122°23'0 0.0
2017-Dec-08 16:30N 37°47' W 122°23'0 0.0
2017-Dec-08 16:00N 37°47' W 122°23'0 0.0
2017-Dec-08 15:30N 37°47' W 122°23'0 0.0
2017-Dec-08 15:00N 37°47' W 122°23'0 0.0
2017-Dec-08 14:30N 37°47' W 122°23'0 0.0
2017-Dec-08 14:00N 37°47' W 122°23'0 0.0
2017-Dec-08 13:30N 37°47' W 122°23'0 0.0
2017-Dec-08 13:00N 37°47' W 122°23'0 0.0
2017-Dec-08 12:30N 37°47' W 122°23'0 0.0
2017-Dec-08 12:00N 37°47' W 122°23'0 0.0
2017-Dec-08 11:30N 37°47' W 122°23'0 0.0
2017-Dec-08 11:00N 37°47' W 122°23'0 0.0
2017-Dec-08 10:30N 37°47' W 122°23'0 0.0
2017-Dec-08 10:00N 37°47' W 122°23'0 0.0
2017-Dec-08 09:30N 37°47' W 122°23'0 0.0
2017-Dec-08 09:00N 37°47' W 122°23'0 0.0
2017-Dec-08 08:30N 37°47' W 122°23'0 0.0
2017-Dec-08 08:00N 37°47' W 122°23'0 0.0
2017-Dec-08 07:30N 37°47' W 122°23'0 0.0
2017-Dec-08 07:00N 37°47' W 122°23'0 0.0
2017-Dec-08 06:30N 37°47' W 122°23'0 0.0
2017-Dec-08 06:00N 37°47' W 122°23'0 0.0
2017-Dec-08 05:30N 37°47' W 122°23'0 0.0
2017-Dec-08 05:00N 37°47' W 122°23'0 0.0
2017-Dec-08 04:30N 37°47' W 122°23'0 0.0
2017-Dec-08 04:00N 37°47' W 122°23'0 0.0
2017-Dec-08 03:30N 37°47' W 122°23'0 0.0
2017-Dec-08 03:00N 37°47' W 122°23'0 0.0
2017-Dec-08 02:30N 37°47' W 122°23'0 0.0
2017-Dec-08 02:00N 37°47' W 122°23'0 0.0
2017-Dec-08 01:30N 37°47' W 122°23'0 0.0
2017-Dec-08 01:00N 37°47' W 122°23'0 0.0
2017-Dec-08 00:30N 37°47' W 122°23'0 0.0
2017-Dec-08 00:00N 37°47' W 122°23'0 0.0
2017-Dec-07 23:30N 37°47' W 122°23'0 0.0
2017-Dec-07 23:00N 37°47' W 122°23'0 0.0
2017-Dec-07 22:30N 37°47' W 122°23'0 0.0
2017-Dec-07 22:00N 37°47' W 122°23'0 0.0
2017-Dec-07 21:30N 37°47' W 122°23'0 0.0
2017-Dec-07 21:00N 37°47' W 122°23'0 0.0
2017-Dec-07 20:30N 37°47' W 122°23'0 0.0
2017-Dec-07 20:00N 37°47' W 122°23'0 0.0
2017-Dec-07 19:30N 37°47' W 122°23'0 0.0
2017-Dec-07 19:00N 37°47' W 122°23'0 0.0
2017-Dec-07 18:30N 37°47' W 122°23'0 0.0
2017-Dec-07 18:00N 37°47' W 122°23'0 0.0
2017-Dec-07 17:30N 37°47' W 122°23'0 0.0
2017-Dec-07 17:00N 37°47' W 122°23'0 0.0
2017-Dec-07 16:30N 37°47' W 122°23'0 0.0
2017-Dec-07 16:00N 37°47' W 122°23'0 0.0
2017-Dec-07 15:30N 37°47' W 122°23'0 0.0
2017-Dec-07 15:00N 37°47' W 122°23'0 0.0
2017-Dec-07 14:30N 37°47' W 122°23'0 0.0
2017-Dec-07 14:00N 37°47' W 122°23'0 0.0
2017-Dec-07 13:30N 37°47' W 122°23'0 0.0
2017-Dec-07 13:00N 37°47' W 122°23'0 0.0
2017-Dec-07 12:30N 37°47' W 122°23'0 0.0
2017-Dec-07 12:00N 37°47' W 122°23'0 0.0
2017-Dec-07 11:30N 37°47' W 122°23'0 0.0
2017-Dec-07 11:00N 37°47' W 122°23'0 0.0
2017-Dec-07 10:30N 37°47' W 122°23'0 0.0
2017-Dec-07 10:00N 37°47' W 122°23'0 0.0
2017-Dec-07 09:30N 37°47' W 122°23'0 0.0
2017-Dec-07 09:00N 37°47' W 122°23'0 0.0
2017-Dec-07 08:30N 37°47' W 122°23'0 0.0
2017-Dec-07 08:00N 37°47' W 122°23'0 0.0
2017-Dec-07 07:30N 37°47' W 122°23'0 0.0
2017-Dec-07 07:00N 37°47' W 122°23'0 0.0
2017-Dec-07 06:30N 37°47' W 122°23'0 0.0
2017-Dec-07 06:00N 37°47' W 122°23'0 0.0
2017-Dec-07 05:30N 37°47' W 122°23'0 0.0
2017-Dec-07 05:00N 37°47' W 122°23'0 0.0
2017-Dec-07 04:30N 37°47' W 122°23'0 0.0
2017-Dec-07 04:00N 37°47' W 122°23'0 0.0
2017-Dec-07 03:30N 37°47' W 122°23'0 0.0
2017-Dec-07 03:00N 37°47' W 122°23'0 0.0
2017-Dec-07 02:30N 37°47' W 122°23'0 0.0
2017-Dec-07 02:00N 37°47' W 122°23'0 0.0
2017-Dec-07 01:30N 37°47' W 122°23'0 0.0
2017-Dec-07 01:00N 37°47' W 122°23'0 0.0
2017-Dec-07 00:30N 37°47' W 122°23'0 0.0
2017-Dec-07 00:00N 37°47' W 122°23'0 0.0
2017-Dec-06 23:30N 37°47' W 122°23'0 0.0
2017-Dec-06 23:00N 37°47' W 122°23'0 0.0
2017-Dec-06 22:30N 37°47' W 122°23'0 0.0
2017-Dec-06 22:00N 37°47' W 122°23'0 0.0
2017-Dec-06 21:30N 37°47' W 122°23'0 0.0
2017-Dec-06 21:00N 37°47' W 122°23'  

Dump ship's entire track history